Nenzel, Nebraska
Current Conditions -  °F | °C
As of 6:52 PM on Monday 20 Oct 2014 (Local Time) from KVTN Reporting Station
Clear Clear  
Wind Chill: 62°   Ceiling: Unl
Heat Index: 62°   Visibility: 10mi
Dew Point: 39°   Wind: 7mph
Humidity: 43%   Direction: 160°SSE
Pressure: 29.99"   Gusts: NA
Location:  42.93°N, 101.1°W
Report Text: KVTN 210052Z AUTO 16006KT 10SM CLR 17/04 A2999 RMK AO2 SLP163 T01670039
Loading
Personal Weather Stations






























Interactive Weather Map
Tropical Storm Tracking
New forecast layout! Learn more

10-Day Weather Forecast

Advertisements
Track Severe Weather on mobile